sensor_id;sensor_type;location;lat;lon;timestamp;temperature;humidity
15048;DHT22;7621;52.350;13.308;2022-10-16T07:31:58;19.20;99.90
15048;DHT22;7621;52.350;13.308;2022-10-16T07:34:23;20.00;99.90
15048;DHT22;7621;52.350;13.308;2022-10-16T07:36:49;20.40;99.90
15048;DHT22;7621;52.350;13.308;2022-10-16T07:39:15;20.60;99.90
15048;DHT22;7621;52.350;13.308;2022-10-16T07:41:41;20.50;99.90
15048;DHT22;7621;52.350;13.308;2022-10-16T07:44:06;20.30;99.90
15048;DHT22;7621;52.350;13.308;2022-10-16T07:46:32;20.30;99.90
15048;DHT22;7621;52.350;13.308;2022-10-16T07:48:59;20.10;99.90
15048;DHT22;7621;52.350;13.308;2022-10-16T07:51:25;20.00;99.90
15048;DHT22;7621;52.350;13.308;2022-10-16T07:53:52;19.90;99.90
15048;DHT22;7621;52.350;13.308;2022-10-16T07:56:18;20.00;99.90
15048;DHT22;7621;52.350;13.308;2022-10-16T07:58:44;19.90;99.90
15048;DHT22;7621;52.350;13.308;2022-10-16T08:01:12;19.70;99.90
15048;DHT22;7621;52.350;13.308;2022-10-16T08:03:42;19.60;99.90
15048;DHT22;7621;52.350;13.308;2022-10-16T08:06:07;19.50;99.90
15048;DHT22;7621;52.350;13.308;2022-10-16T08:08:33;19.40;99.90
15048;DHT22;7621;52.350;13.308;2022-10-16T08:10:59;19.40;99.90
15048;DHT22;7621;52.350;13.308;2022-10-16T08:13:24;19.30;99.90
15048;DHT22;7621;52.350;13.308;2022-10-16T08:15:51;19.40;99.90
15048;DHT22;7621;52.350;13.308;2022-10-16T08:18:18;19.50;99.90
15048;DHT22;7621;52.350;13.308;2022-10-16T08:20:44;19.50;99.90
15048;DHT22;7621;52.350;13.308;2022-10-16T08:23:11;19.60;99.90
15048;DHT22;7621;52.350;13.308;2022-10-16T08:25:37;19.80;99.90
15048;DHT22;7621;52.350;13.308;2022-10-16T08:28:05;19.90;99.90
15048;DHT22;7621;52.350;13.308;2022-10-16T08:30:31;20.10;99.90
15048;DHT22;7621;52.350;13.308;2022-10-16T08:32:56;20.40;99.90
15048;DHT22;7621;52.350;13.308;2022-10-16T08:35:23;20.80;99.90
15048;DHT22;7621;52.350;13.308;2022-10-16T08:37:49;21.60;97.50
15048;DHT22;7621;52.350;13.308;2022-10-16T08:40:20;22.10;95.80
15048;DHT22;7621;52.350;13.308;2022-10-16T08:48:47;21.90;94.50
15048;DHT22;7621;52.350;13.308;2022-10-16T08:51:32;21.70;94.50
15048;DHT22;7621;52.350;13.308;2022-10-16T08:54:26;21.60;94.50
15048;DHT22;7621;52.350;13.308;2022-10-16T08:57:00;21.70;94.90
15048;DHT22;7621;52.350;13.308;2022-10-16T08:59:26;21.80;94.20
15048;DHT22;7621;52.350;13.308;2022-10-16T09:01:52;21.70;93.90
15048;DHT22;7621;52.350;13.308;2022-10-16T09:04:26;21.60;94.00
15048;DHT22;7621;52.350;13.308;2022-10-16T09:06:58;21.60;93.80
15048;DHT22;7621;52.350;13.308;2022-10-16T09:13:17;21.40;94.10
15048;DHT22;7621;52.350;13.308;2022-10-16T09:15:53;21.60;94.30
15048;DHT22;7621;52.350;13.308;2022-10-16T09:21:29;21.90;93.40
15048;DHT22;7621;52.350;13.308;2022-10-16T09:23:59;22.00;93.40
15048;DHT22;7621;52.350;13.308;2022-10-16T09:26:25;22.30;93.20
15048;DHT22;7621;52.350;13.308;2022-10-16T09:28:52;22.40;92.30
15048;DHT22;7621;52.350;13.308;2022-10-16T09:31:20;22.80;92.20
15048;DHT22;7621;52.350;13.308;2022-10-16T09:33:50;23.00;90.90
15048;DHT22;7621;52.350;13.308;2022-10-16T09:36:18;23.20;90.30
15048;DHT22;7621;52.350;13.308;2022-10-16T09:38:44;23.60;90.20
15048;DHT22;7621;52.350;13.308;2022-10-16T09:41:19;24.10;88.30
15048;DHT22;7621;52.350;13.308;2022-10-16T09:43:59;24.70;85.00
15048;DHT22;7621;52.350;13.308;2022-10-16T09:46:35;24.70;82.20
15048;DHT22;7621;52.350;13.308;2022-10-16T09:49:16;24.60;82.90
15048;DHT22;7621;52.350;13.308;2022-10-16T09:51:43;24.50;82.20
15048;DHT22;7621;52.350;13.308;2022-10-16T09:56:36;24.10;83.00
15048;DHT22;7621;52.350;13.308;2022-10-16T09:59:13;23.90;82.50
15048;DHT22;7621;52.350;13.308;2022-10-16T10:01:44;23.80;83.00
15048;DHT22;7621;52.350;13.308;2022-10-16T10:04:10;23.80;83.50
15048;DHT22;7621;52.350;13.308;2022-10-16T10:06:45;24.00;83.60
15048;DHT22;7621;52.350;13.308;2022-10-16T10:12:38;25.00;81.20
15048;DHT22;7621;52.350;13.308;2022-10-16T10:15:11;25.50;77.70
15048;DHT22;7621;52.350;13.308;2022-10-16T10:17:57;25.80;75.90
15048;DHT22;7621;52.350;13.308;2022-10-16T10:20:27;25.70;73.60
15048;DHT22;7621;52.350;13.308;2022-10-16T10:22:53;25.50;74.10
15048;DHT22;7621;52.350;13.308;2022-10-16T10:25:32;25.30;74.40
15048;DHT22;7621;52.350;13.308;2022-10-16T10:31:09;25.00;75.10
15048;DHT22;7621;52.350;13.308;2022-10-16T10:33:46;24.80;74.50
15048;DHT22;7621;52.350;13.308;2022-10-16T10:38:54;24.60;75.10
15048;DHT22;7621;52.350;13.308;2022-10-16T10:47:17;24.60;73.40
15048;DHT22;7621;52.350;13.308;2022-10-16T10:52:38;24.60;74.20
15048;DHT22;7621;52.350;13.308;2022-10-16T10:55:24;24.50;74.30
15048;DHT22;7621;52.350;13.308;2022-10-16T10:58:10;24.40;74.20
15048;DHT22;7621;52.350;13.308;2022-10-16T11:01:07;24.30;74.80
15048;DHT22;7621;52.350;13.308;2022-10-16T11:06:30;24.20;74.40
15048;DHT22;7621;52.350;13.308;2022-10-16T11:09:15;24.10;74.60
15048;DHT22;7621;52.350;13.308;2022-10-16T11:11:47;24.10;74.20
15048;DHT22;7621;52.350;13.308;2022-10-16T11:14:23;24.10;74.10
15048;DHT22;7621;52.350;13.308;2022-10-16T11:22:26;23.90;74.80
15048;DHT22;7621;52.350;13.308;2022-10-16T11:27:24;24.20;75.70
15048;DHT22;7621;52.350;13.308;2022-10-16T11:29:58;24.40;73.80
15048;DHT22;7621;52.350;13.308;2022-10-16T11:32:39;24.60;73.20
15048;DHT22;7621;52.350;13.308;2022-10-16T11:35:17;24.80;71.40
15048;DHT22;7621;52.350;13.308;2022-10-16T11:37:46;24.90;71.50
15048;DHT22;7621;52.350;13.308;2022-10-16T11:40:31;25.00;70.40
15048;DHT22;7621;52.350;13.308;2022-10-16T11:43:06;25.00;69.50
15048;DHT22;7621;52.350;13.308;2022-10-16T11:45:43;25.00;69.20
15048;DHT22;7621;52.350;13.308;2022-10-16T11:51:02;25.10;69.20
15048;DHT22;7621;52.350;13.308;2022-10-16T11:53:51;25.00;67.70
15048;DHT22;7621;52.350;13.308;2022-10-16T11:56:20;24.90;67.30
15048;DHT22;7621;52.350;13.308;2022-10-16T11:59:06;24.80;67.20
15048;DHT22;7621;52.350;13.308;2022-10-16T12:02:08;24.60;68.10
15048;DHT22;7621;52.350;13.308;2022-10-16T12:04:50;24.40;68.60
15048;DHT22;7621;52.350;13.308;2022-10-16T12:07:19;24.40;68.10
15048;DHT22;7621;52.350;13.308;2022-10-16T12:09:47;24.40;68.10
15048;DHT22;7621;52.350;13.308;2022-10-16T12:12:36;24.40;68.50
15048;DHT22;7621;52.350;13.308;2022-10-16T12:17:50;24.30;69.10
15048;DHT22;7621;52.350;13.308;2022-10-16T12:20:30;24.20;68.40
15048;DHT22;7621;52.350;13.308;2022-10-16T12:23:02;24.20;68.90
15048;DHT22;7621;52.350;13.308;2022-10-16T12:25:32;24.10;68.40
15048;DHT22;7621;52.350;13.308;2022-10-16T12:28:04;24.00;68.70
15048;DHT22;7621;52.350;13.308;2022-10-16T12:30:35;23.80;69.10
15048;DHT22;7621;52.350;13.308;2022-10-16T12:33:25;23.70;69.60
15048;DHT22;7621;52.350;13.308;2022-10-16T12:35:52;23.50;69.40
15048;DHT22;7621;52.350;13.308;2022-10-16T12:40:58;23.30;70.70
15048;DHT22;7621;52.350;13.308;2022-10-16T12:43:42;23.30;70.10
15048;DHT22;7621;52.350;13.308;2022-10-16T12:48:33;23.30;70.00
15048;DHT22;7621;52.350;13.308;2022-10-16T12:51:12;23.30;70.00
15048;DHT22;7621;52.350;13.308;2022-10-16T12:53:46;23.20;70.20
15048;DHT22;7621;52.350;13.308;2022-10-16T12:56:39;23.20;70.10
15048;DHT22;7621;52.350;13.308;2022-10-16T12:59:35;23.10;70.70
15048;DHT22;7621;52.350;13.308;2022-10-16T13:05:08;23.20;69.80
15048;DHT22;7621;52.350;13.308;2022-10-16T13:10:30;23.20;68.70
15048;DHT22;7621;52.350;13.308;2022-10-16T13:18:22;23.20;68.60
15048;DHT22;7621;52.350;13.308;2022-10-16T13:24:02;23.00;69.30
15048;DHT22;7621;52.350;13.308;2022-10-16T13:29:13;22.90;70.30
15048;DHT22;7621;52.350;13.308;2022-10-16T13:31:39;22.90;70.40
15048;DHT22;7621;52.350;13.308;2022-10-16T13:34:06;22.80;70.50
15048;DHT22;7621;52.350;13.308;2022-10-16T13:36:50;22.80;71.00
15048;DHT22;7621;52.350;13.308;2022-10-16T13:39:22;22.70;71.40
15048;DHT22;7621;52.350;13.308;2022-10-16T13:42:22;22.70;71.60
15048;DHT22;7621;52.350;13.308;2022-10-16T13:44:51;22.70;71.90
15048;DHT22;7621;52.350;13.308;2022-10-16T13:47:22;22.70;72.30
15048;DHT22;7621;52.350;13.308;2022-10-16T13:50:04;22.60;72.30
15048;DHT22;7621;52.350;13.308;2022-10-16T13:52:31;22.50;72.10
15048;DHT22;7621;52.350;13.308;2022-10-16T13:54:57;22.50;72.20
15048;DHT22;7621;52.350;13.308;2022-10-16T13:57:24;22.40;72.20
15048;DHT22;7621;52.350;13.308;2022-10-16T13:59:50;22.30;72.40
15048;DHT22;7621;52.350;13.308;2022-10-16T14:02:35;22.30;72.60
15048;DHT22;7621;52.350;13.308;2022-10-16T14:05:03;22.30;73.30
15048;DHT22;7621;52.350;13.308;2022-10-16T14:07:31;22.30;73.50
15048;DHT22;7621;52.350;13.308;2022-10-16T14:10:05;22.20;73.60
15048;DHT22;7621;52.350;13.308;2022-10-16T14:12:31;22.20;73.90
15048;DHT22;7621;52.350;13.308;2022-10-16T14:14:58;22.20;74.20
15048;DHT22;7621;52.350;13.308;2022-10-16T14:17:29;22.20;74.00
15048;DHT22;7621;52.350;13.308;2022-10-16T14:19:58;22.20;73.50
15048;DHT22;7621;52.350;13.308;2022-10-16T14:22:33;22.30;73.60
15048;DHT22;7621;52.350;13.308;2022-10-16T14:24:59;22.20;73.20
15048;DHT22;7621;52.350;13.308;2022-10-16T14:27:34;22.20;73.40
15048;DHT22;7621;52.350;13.308;2022-10-16T14:30:21;22.20;74.00
15048;DHT22;7621;52.350;13.308;2022-10-16T14:33:24;22.10;74.50
15048;DHT22;7621;52.350;13.308;2022-10-16T14:38:34;22.00;75.20
15048;DHT22;7621;52.350;13.308;2022-10-16T14:41:00;21.90;75.00
15048;DHT22;7621;52.350;13.308;2022-10-16T14:43:36;21.80;74.80
15048;DHT22;7621;52.350;13.308;2022-10-16T14:46:06;21.70;75.00
15048;DHT22;7621;52.350;13.308;2022-10-16T14:48:32;21.60;76.10
15048;DHT22;7621;52.350;13.308;2022-10-16T14:50:58;21.50;75.70
15048;DHT22;7621;52.350;13.308;2022-10-16T14:53:23;21.50;76.00
15048;DHT22;7621;52.350;13.308;2022-10-16T14:55:49;21.40;76.30
15048;DHT22;7621;52.350;13.308;2022-10-16T14:58:22;21.40;76.70
15048;DHT22;7621;52.350;13.308;2022-10-16T15:00:49;21.30;76.60
15048;DHT22;7621;52.350;13.308;2022-10-16T15:03:15;21.30;76.90
15048;DHT22;7621;52.350;13.308;2022-10-16T15:05:41;21.20;77.10
15048;DHT22;7621;52.350;13.308;2022-10-16T15:08:06;21.20;77.00
15048;DHT22;7621;52.350;13.308;2022-10-16T15:10:38;21.10;76.60
15048;DHT22;7621;52.350;13.308;2022-10-16T15:13:04;21.00;76.30
15048;DHT22;7621;52.350;13.308;2022-10-16T15:15:36;21.00;76.40
15048;DHT22;7621;52.350;13.308;2022-10-16T15:18:03;20.90;76.60
15048;DHT22;7621;52.350;13.308;2022-10-16T15:20:38;20.80;77.60
15048;DHT22;7621;52.350;13.308;2022-10-16T15:23:09;20.80;76.80
15048;DHT22;7621;52.350;13.308;2022-10-16T15:25:48;20.60;77.00
15048;DHT22;7621;52.350;13.308;2022-10-16T15:28:15;20.50;77.20
15048;DHT22;7621;52.350;13.308;2022-10-16T15:30:41;20.50;78.20
15048;DHT22;7621;52.350;13.308;2022-10-16T15:33:13;20.30;77.50
15048;DHT22;7621;52.350;13.308;2022-10-16T15:35:40;20.30;77.90
15048;DHT22;7621;52.350;13.308;2022-10-16T15:38:05;20.20;78.20
15048;DHT22;7621;52.350;13.308;2022-10-16T15:40:31;20.10;78.50
15048;DHT22;7621;52.350;13.308;2022-10-16T15:42:56;20.00;78.70
15048;DHT22;7621;52.350;13.308;2022-10-16T15:45:22;19.90;79.20
15048;DHT22;7621;52.350;13.308;2022-10-16T15:47:48;19.90;79.40
15048;DHT22;7621;52.350;13.308;2022-10-16T15:50:15;19.80;79.80
15048;DHT22;7621;52.350;13.308;2022-10-16T15:52:41;19.70;80.00
15048;DHT22;7621;52.350;13.308;2022-10-16T15:55:12;19.60;80.40
15048;DHT22;7621;52.350;13.308;2022-10-16T15:57:39;19.50;80.60
15048;DHT22;7621;52.350;13.308;2022-10-16T16:00:08;19.40;81.20
15048;DHT22;7621;52.350;13.308;2022-10-16T16:02:34;19.40;81.70
15048;DHT22;7621;52.350;13.308;2022-10-16T16:05:00;19.30;81.90
15048;DHT22;7621;52.350;13.308;2022-10-16T16:07:25;19.20;81.90
15048;DHT22;7621;52.350;13.308;2022-10-16T16:09:52;19.10;82.10
15048;DHT22;7621;52.350;13.308;2022-10-16T16:12:18;19.00;83.00
15048;DHT22;7621;52.350;13.308;2022-10-16T16:14:43;18.90;82.30
15048;DHT22;7621;52.350;13.308;2022-10-16T16:17:11;18.80;82.70
15048;DHT22;7621;52.350;13.308;2022-10-16T16:19:37;18.70;83.20
15048;DHT22;7621;52.350;13.308;2022-10-16T16:22:02;18.70;83.90
15048;DHT22;7621;52.350;13.308;2022-10-16T16:24:28;18.50;84.30
15048;DHT22;7621;52.350;13.308;2022-10-16T16:26:54;18.40;84.80
15048;DHT22;7621;52.350;13.308;2022-10-16T16:29:19;18.30;85.30
15048;DHT22;7621;52.350;13.308;2022-10-16T16:31:45;18.20;85.70
15048;DHT22;7621;52.350;13.308;2022-10-16T16:34:12;18.10;86.20
15048;DHT22;7621;52.350;13.308;2022-10-16T16:36:38;18.00;86.50
15048;DHT22;7621;52.350;13.308;2022-10-16T16:39:06;17.80;86.70
15048;DHT22;7621;52.350;13.308;2022-10-16T16:41:31;17.70;87.30
15048;DHT22;7621;52.350;13.308;2022-10-16T16:44:05;17.60;88.00
15048;DHT22;7621;52.350;13.308;2022-10-16T16:46:33;17.60;89.00
15048;DHT22;7621;52.350;13.308;2022-10-16T16:49:00;17.50;89.80
15048;DHT22;7621;52.350;13.308;2022-10-16T16:51:25;17.40;90.20
15048;DHT22;7621;52.350;13.308;2022-10-16T16:53:53;17.30;90.50
15048;DHT22;7621;52.350;13.308;2022-10-16T16:56:20;17.30;90.70
15048;DHT22;7621;52.350;13.308;2022-10-16T16:58:47;17.20;90.90
15048;DHT22;7621;52.350;13.308;2022-10-16T17:01:13;17.10;91.10
15048;DHT22;7621;52.350;13.308;2022-10-16T17:03:42;17.10;91.30
15048;DHT22;7621;52.350;13.308;2022-10-16T17:06:10;17.00;91.40
15048;DHT22;7621;52.350;13.308;2022-10-16T17:08:36;17.00;91.50
15048;DHT22;7621;52.350;13.308;2022-10-16T17:11:02;16.90;91.90
15048;DHT22;7621;52.350;13.308;2022-10-16T17:13:29;16.80;91.70
15048;DHT22;7621;52.350;13.308;2022-10-16T17:15:55;16.70;91.90
15048;DHT22;7621;52.350;13.308;2022-10-16T17:18:23;16.70;92.00
15048;DHT22;7621;52.350;13.308;2022-10-16T17:20:50;16.70;92.20
15048;DHT22;7621;52.350;13.308;2022-10-16T17:23:17;16.60;92.20
15048;DHT22;7621;52.350;13.308;2022-10-16T17:25:43;16.50;92.30
15048;DHT22;7621;52.350;13.308;2022-10-16T17:28:10;16.50;92.40
15048;DHT22;7621;52.350;13.308;2022-10-16T17:30:37;16.40;92.40
15048;DHT22;7621;52.350;13.308;2022-10-16T17:33:03;16.30;92.40
15048;DHT22;7621;52.350;13.308;2022-10-16T17:35:35;16.30;92.50
15048;DHT22;7621;52.350;13.308;2022-10-16T17:38:01;16.20;92.60
15048;DHT22;7621;52.350;13.308;2022-10-16T17:40:26;16.10;92.70
15048;DHT22;7621;52.350;13.308;2022-10-16T17:42:52;16.00;92.80
15048;DHT22;7621;52.350;13.308;2022-10-16T17:45:17;15.90;93.10
15048;DHT22;7621;52.350;13.308;2022-10-16T17:47:43;15.90;93.20
15048;DHT22;7621;52.350;13.308;2022-10-16T17:50:08;15.80;93.30
15048;DHT22;7621;52.350;13.308;2022-10-16T17:52:34;15.70;93.50
15048;DHT22;7621;52.350;13.308;2022-10-16T17:54:59;15.60;93.70
15048;DHT22;7621;52.350;13.308;2022-10-16T17:57:25;15.60;93.90
15048;DHT22;7621;52.350;13.308;2022-10-16T17:59:53;15.50;94.40
15048;DHT22;7621;52.350;13.308;2022-10-16T18:02:19;15.50;94.10
15048;DHT22;7621;52.350;13.308;2022-10-16T18:04:45;15.50;94.20
15048;DHT22;7621;52.350;13.308;2022-10-16T18:07:10;15.40;94.30
15048;DHT22;7621;52.350;13.308;2022-10-16T18:09:36;15.40;94.50
15048;DHT22;7621;52.350;13.308;2022-10-16T18:12:02;15.30;94.60
15048;DHT22;7621;52.350;13.308;2022-10-16T18:14:29;15.20;94.60
15048;DHT22;7621;52.350;13.308;2022-10-16T18:16:55;15.20;94.80
15048;DHT22;7621;52.350;13.308;2022-10-16T18:19:22;15.10;94.90
15048;DHT22;7621;52.350;13.308;2022-10-16T18:21:48;15.00;94.90
15048;DHT22;7621;52.350;13.308;2022-10-16T18:24:15;15.00;95.20
15048;DHT22;7621;52.350;13.308;2022-10-16T18:26:41;14.90;95.30
15048;DHT22;7621;52.350;13.308;2022-10-16T18:29:08;14.90;95.40
15048;DHT22;7621;52.350;13.308;2022-10-16T18:31:34;14.80;95.40
15048;DHT22;7621;52.350;13.308;2022-10-16T18:33:59;14.80;95.70
15048;DHT22;7621;52.350;13.308;2022-10-16T18:36:27;14.70;95.90
15048;DHT22;7621;52.350;13.308;2022-10-16T18:38:54;14.70;96.00
15048;DHT22;7621;52.350;13.308;2022-10-16T18:41:19;14.70;96.20
15048;DHT22;7621;52.350;13.308;2022-10-16T18:43:45;14.70;96.20
15048;DHT22;7621;52.350;13.308;2022-10-16T18:46:14;14.60;96.20
15048;DHT22;7621;52.350;13.308;2022-10-16T18:48:40;14.60;96.30
15048;DHT22;7621;52.350;13.308;2022-10-16T18:51:08;14.50;96.40
15048;DHT22;7621;52.350;13.308;2022-10-16T18:53:34;14.50;96.50
15048;DHT22;7621;52.350;13.308;2022-10-16T18:56:00;14.40;96.70
15048;DHT22;7621;52.350;13.308;2022-10-16T18:58:26;14.40;96.80
15048;DHT22;7621;52.350;13.308;2022-10-16T19:00:51;14.30;96.80
15048;DHT22;7621;52.350;13.308;2022-10-16T19:03:17;14.30;97.00
15048;DHT22;7621;52.350;13.308;2022-10-16T19:05:43;14.30;97.10
15048;DHT22;7621;52.350;13.308;2022-10-16T19:08:11;14.20;97.20
15048;DHT22;7621;52.350;13.308;2022-10-16T19:10:38;14.20;97.30
15048;DHT22;7621;52.350;13.308;2022-10-16T19:13:07;14.10;97.40
15048;DHT22;7621;52.350;13.308;2022-10-16T19:15:33;14.10;97.60
15048;DHT22;7621;52.350;13.308;2022-10-16T19:17:58;14.00;97.80
15048;DHT22;7621;52.350;13.308;2022-10-16T19:20:24;14.00;97.90
15048;DHT22;7621;52.350;13.308;2022-10-16T19:22:49;14.00;98.00
15048;DHT22;7621;52.350;13.308;2022-10-16T19:25:18;13.90;98.10
15048;DHT22;7621;52.350;13.308;2022-10-16T19:27:47;13.90;98.10
15048;DHT22;7621;52.350;13.308;2022-10-16T19:30:12;13.90;98.30
15048;DHT22;7621;52.350;13.308;2022-10-16T19:32:38;13.80;98.40
15048;DHT22;7621;52.350;13.308;2022-10-16T19:35:04;13.80;98.70
15048;DHT22;7621;52.350;13.308;2022-10-16T19:37:29;13.80;98.90
15048;DHT22;7621;52.350;13.308;2022-10-16T19:39:55;13.80;99.10
15048;DHT22;7621;52.350;13.308;2022-10-16T19:42:20;13.80;99.20
15048;DHT22;7621;52.350;13.308;2022-10-16T19:44:48;13.90;99.30
15048;DHT22;7621;52.350;13.308;2022-10-16T19:47:13;13.90;99.50
15048;DHT22;7621;52.350;13.308;2022-10-16T19:49:39;13.90;99.50
15048;DHT22;7621;52.350;13.308;2022-10-16T19:52:04;13.90;99.60
15048;DHT22;7621;52.350;13.308;2022-10-16T19:54:30;13.90;99.70
15048;DHT22;7621;52.350;13.308;2022-10-16T19:56:55;13.90;99.90
15048;DHT22;7621;52.350;13.308;2022-10-16T19:59:23;13.90;99.90
15048;DHT22;7621;52.350;13.308;2022-10-16T20:01:48;13.90;99.90
15048;DHT22;7621;52.350;13.308;2022-10-16T20:04:15;13.90;99.90
15048;DHT22;7621;52.350;13.308;2022-10-16T20:06:41;13.80;99.90
15048;DHT22;7621;52.350;13.308;2022-10-16T20:09:07;13.80;99.90
15048;DHT22;7621;52.350;13.308;2022-10-16T20:11:34;13.70;99.90
15048;DHT22;7621;52.350;13.308;2022-10-16T20:14:00;13.70;99.90
15048;DHT22;7621;52.350;13.308;2022-10-16T20:16:27;13.70;99.90
